createdAt,value
2018-07-26T00:03:29.597Z,20.40
2018-07-26T00:08:34.571Z,20.30
2018-07-26T00:13:39.284Z,20.00
2018-07-26T00:18:44.046Z,19.90
2018-07-26T00:23:48.896Z,19.90
2018-07-26T00:28:53.574Z,19.80
2018-07-26T00:33:58.146Z,19.80
2018-07-26T00:39:02.947Z,19.70
2018-07-26T00:44:08.645Z,19.70
2018-07-26T00:49:13.374Z,19.60
2018-07-26T00:54:18.270Z,19.70
2018-07-26T00:59:23.059Z,19.60
2018-07-26T01:04:28.756Z,19.60
2018-07-26T01:09:33.457Z,19.40
2018-07-26T01:14:38.105Z,19.50
2018-07-26T01:19:42.786Z,19.50
2018-07-26T01:24:48.358Z,19.50
2018-07-26T01:29:52.970Z,19.40
2018-07-26T01:34:57.761Z,19.30
2018-07-26T01:40:02.710Z,19.30
2018-07-26T01:45:07.335Z,19.30
2018-07-26T01:50:11.941Z,19.20
2018-07-26T01:55:16.682Z,19.00
2018-07-26T02:00:21.416Z,18.90
2018-07-26T02:05:26.056Z,18.80
2018-07-26T02:10:31.003Z,18.80
2018-07-26T02:15:35.653Z,18.70
2018-07-26T02:20:40.973Z,18.80
2018-07-26T02:25:45.985Z,18.60
2018-07-26T02:30:50.870Z,18.50
2018-07-26T02:35:55.588Z,18.30
2018-07-26T02:41:00.226Z,18.20
2018-07-26T02:46:04.816Z,18.10
2018-07-26T02:51:09.602Z,18.20
2018-07-26T02:56:14.424Z,18.10
2018-07-26T03:01:19.477Z,18.00
2018-07-26T03:06:24.394Z,17.70
2018-07-26T03:11:29.474Z,17.60
2018-07-26T03:16:34.502Z,17.60
2018-07-26T03:21:39.262Z,17.60
2018-07-26T03:26:43.859Z,17.60
2018-07-26T03:31:48.611Z,17.40
2018-07-26T03:36:53.598Z,17.30
2018-07-26T03:41:58.586Z,17.30
2018-07-26T03:47:03.548Z,17.40
2018-07-26T03:52:08.771Z,17.30
2018-07-26T03:57:14.659Z,17.30
2018-07-26T04:02:19.709Z,17.40
2018-07-26T04:07:24.291Z,17.40
2018-07-26T04:12:29.020Z,17.50
2018-07-26T04:17:33.729Z,17.60
2018-07-26T04:22:38.734Z,17.50
2018-07-26T04:27:43.476Z,17.60
2018-07-26T04:32:48.097Z,17.70
2018-07-26T04:37:53.040Z,17.90
2018-07-26T04:42:57.824Z,18.20
2018-07-26T04:48:02.504Z,18.40
2018-07-26T04:53:07.332Z,18.60
2018-07-26T04:58:12.017Z,18.70
2018-07-26T05:03:16.745Z,18.80
2018-07-26T05:08:21.578Z,18.90
2018-07-26T05:13:26.304Z,19.10
2018-07-26T05:18:31.226Z,19.40
2018-07-26T05:23:35.851Z,19.60
2018-07-26T05:28:40.549Z,19.70
2018-07-26T05:33:45.189Z,20.00
2018-07-26T05:38:49.905Z,20.30
2018-07-26T05:43:55.555Z,20.60
2018-07-26T05:49:00.297Z,20.80
2018-07-26T05:54:05.123Z,21.10
2018-07-26T05:59:09.956Z,21.40
2018-07-26T06:04:14.786Z,21.70
2018-07-26T06:09:19.820Z,22.00
2018-07-26T06:14:24.577Z,22.10
2018-07-26T06:19:29.452Z,22.40
2018-07-26T06:24:34.219Z,22.60
2018-07-26T06:29:38.973Z,22.80
2018-07-26T06:34:43.797Z,22.90
2018-07-26T06:39:48.888Z,23.00
2018-07-26T06:44:53.609Z,23.10
2018-07-26T06:49:58.452Z,23.20
2018-07-26T06:55:03.068Z,23.40
2018-07-26T07:00:09.020Z,23.60
2018-07-26T07:05:14.361Z,23.80
2018-07-26T07:10:19.101Z,23.80
2018-07-26T07:15:23.898Z,24.10
2018-07-26T07:20:28.765Z,24.30
2018-07-26T07:25:33.657Z,24.50
2018-07-26T07:30:38.179Z,24.80
2018-07-26T07:35:43.208Z,25.00
2018-07-26T07:40:48.047Z,25.20
2018-07-26T07:45:59.350Z,25.20
2018-07-26T07:51:04.318Z,25.20
2018-07-26T07:56:09.040Z,25.20
2018-07-26T08:08:36.314Z,25.30
2018-07-26T08:13:40.956Z,25.20
2018-07-26T08:18:46.214Z,25.60
2018-07-26T08:23:50.796Z,25.80
2018-07-26T08:33:59.903Z,25.40
2018-07-26T08:39:06.942Z,25.60
2018-07-26T08:44:11.731Z,25.80
2018-07-26T08:49:16.493Z,26.00
2018-07-26T08:54:21.434Z,26.10
2018-07-26T08:59:26.003Z,26.30
2018-07-26T09:04:30.777Z,26.40
2018-07-26T09:09:35.712Z,26.40
2018-07-26T09:14:40.247Z,25.90
2018-07-26T09:19:44.967Z,26.10
2018-07-26T09:24:50.876Z,26.50
2018-07-26T09:29:55.629Z,27.10
2018-07-26T09:35:00.338Z,26.90
2018-07-26T09:40:05.372Z,26.80
2018-07-26T09:45:09.995Z,27.00
2018-07-26T09:50:15.780Z,26.80
2018-07-26T09:55:20.540Z,26.70
2018-07-26T10:05:34.714Z,27.40
2018-07-26T10:10:39.614Z,27.80
2018-07-26T10:15:44.260Z,27.90
2018-07-26T10:20:48.872Z,28.10
2018-07-26T10:25:53.749Z,28.30
2018-07-26T10:30:58.516Z,28.90
2018-07-26T10:36:03.901Z,29.30
2018-07-26T10:41:08.725Z,28.70
2018-07-26T10:46:13.668Z,29.20
2018-07-26T10:51:18.516Z,29.80
2018-07-26T10:56:23.475Z,28.90
2018-07-26T11:01:28.583Z,29.20
2018-07-26T11:06:33.270Z,30.20
2018-07-26T11:11:38.205Z,31.00
2018-07-26T11:16:43.026Z,31.90
2018-07-26T11:21:48.015Z,32.70
2018-07-26T11:26:53.369Z,32.60
2018-07-26T11:31:59.032Z,32.60
2018-07-26T11:37:03.960Z,33.10
2018-07-26T11:42:08.914Z,33.40
2018-07-26T11:47:13.905Z,33.60
2018-07-26T11:52:19.211Z,34.50
2018-07-26T11:57:23.999Z,35.20
2018-07-26T12:02:29.721Z,36.40
2018-07-26T12:07:35.465Z,36.90
2018-07-26T12:12:40.542Z,37.50
2018-07-26T12:17:45.743Z,38.20
2018-07-26T12:22:50.722Z,38.90
2018-07-26T12:27:56.201Z,40.30
2018-07-26T12:33:00.903Z,39.60
2018-07-26T12:38:05.543Z,40.60
2018-07-26T12:43:10.364Z,41.50
2018-07-26T12:48:15.155Z,40.80
2018-07-26T12:53:19.831Z,40.80
2018-07-26T12:58:24.697Z,40.60
2018-07-26T13:03:29.618Z,40.10
2018-07-26T13:08:34.513Z,40.20
2018-07-26T13:13:39.206Z,40.30
2018-07-26T13:18:43.964Z,40.40
2018-07-26T13:23:49.129Z,41.20
2018-07-26T13:33:58.287Z,39.60
2018-07-26T13:39:04.529Z,39.80
2018-07-26T13:44:09.348Z,40.70
2018-07-26T13:49:14.102Z,39.60
2018-07-26T13:54:19.196Z,40.20
2018-07-26T13:59:24.006Z,40.30
2018-07-26T14:04:28.751Z,40.60
2018-07-26T14:09:33.550Z,40.60
2018-07-26T14:14:38.305Z,40.90
2018-07-26T14:19:42.994Z,39.70
2018-07-26T14:24:47.620Z,39.60
2018-07-26T14:29:52.124Z,40.30
2018-07-26T14:34:56.798Z,39.10
2018-07-26T14:40:01.677Z,38.70
2018-07-26T14:45:06.623Z,41.00
2018-07-26T14:50:11.650Z,41.20
2018-07-26T14:55:16.466Z,41.30
2018-07-26T15:00:21.237Z,40.20
2018-07-26T15:05:26.105Z,39.80
2018-07-26T15:10:31.047Z,40.40
2018-07-26T15:15:35.872Z,39.40
2018-07-26T15:20:41.107Z,40.30
2018-07-26T15:25:45.601Z,40.60
2018-07-26T15:30:50.559Z,40.00
2018-07-26T15:35:55.706Z,40.70
2018-07-26T15:41:00.511Z,39.50
2018-07-26T15:46:05.564Z,39.20
2018-07-26T15:51:10.422Z,38.00
2018-07-26T15:56:15.259Z,39.50
2018-07-26T16:01:19.969Z,39.60
2018-07-26T16:06:24.910Z,39.10
2018-07-26T16:11:29.780Z,38.10
2018-07-26T16:16:34.930Z,37.60
2018-07-26T16:21:40.009Z,37.30
2018-07-26T16:26:44.803Z,38.40
2018-07-26T16:31:49.660Z,38.80
2018-07-26T16:36:54.529Z,38.20
2018-07-26T16:41:59.883Z,38.30
2018-07-26T16:52:08.813Z,37.60
2018-07-26T16:57:13.620Z,36.90
2018-07-26T17:02:18.589Z,34.40
2018-07-26T17:07:23.528Z,32.60
2018-07-26T17:12:28.725Z,32.00
2018-07-26T17:17:33.504Z,31.60
2018-07-26T17:22:38.717Z,31.10
2018-07-26T17:27:43.711Z,30.80
2018-07-26T17:32:48.701Z,30.70
2018-07-26T17:37:54.394Z,30.30
2018-07-26T17:42:59.195Z,30.00
2018-07-26T17:48:04.015Z,30.00
2018-07-26T17:53:08.927Z,29.80
2018-07-26T17:58:14.275Z,29.60
2018-07-26T18:03:18.948Z,29.30
2018-07-26T18:08:23.756Z,29.00
2018-07-26T18:13:28.716Z,28.90
2018-07-26T18:18:33.696Z,28.70
2018-07-26T18:23:38.565Z,28.60
2018-07-26T18:28:43.027Z,28.40
2018-07-26T18:33:47.662Z,28.20
2018-07-26T18:38:53.473Z,28.00
2018-07-26T18:43:58.357Z,27.80
2018-07-26T18:49:02.776Z,27.60
2018-07-26T18:54:07.566Z,27.30
2018-07-26T18:59:12.512Z,27.00
2018-07-26T19:04:17.376Z,26.80
2018-07-26T19:09:22.622Z,26.60
2018-07-26T19:14:28.101Z,26.50
2018-07-26T19:19:32.891Z,26.30
2018-07-26T19:24:38.462Z,26.10
2018-07-26T19:29:43.097Z,26.00
2018-07-26T19:34:47.664Z,25.80
2018-07-26T19:39:52.224Z,25.70
2018-07-26T19:44:56.957Z,25.60
2018-07-26T19:50:01.925Z,25.50
2018-07-26T19:55:08.336Z,25.40
2018-07-26T20:00:13.746Z,25.30
2018-07-26T20:05:18.658Z,25.20
2018-07-26T20:10:23.503Z,25.10
2018-07-26T20:15:28.257Z,25.00
2018-07-26T20:20:32.955Z,24.90
2018-07-26T20:25:40.866Z,24.90
2018-07-26T20:30:46.114Z,24.80
2018-07-26T20:35:50.792Z,24.70
2018-07-26T20:40:56.045Z,24.70
2018-07-26T20:46:00.899Z,24.60
2018-07-26T20:51:05.496Z,24.60
2018-07-26T20:56:10.205Z,24.40
2018-07-26T21:11:24.349Z,24.20
2018-07-26T21:16:29.396Z,24.10
2018-07-26T21:21:34.755Z,23.90
2018-07-26T21:26:49.848Z,23.70
2018-07-26T21:31:55.181Z,23.60
2018-07-26T21:37:00.191Z,23.50
2018-07-26T21:42:05.026Z,23.50
2018-07-26T21:47:09.512Z,23.40
2018-07-26T21:52:14.245Z,23.30
2018-07-26T21:57:19.048Z,23.20
2018-07-26T22:02:23.875Z,23.20
2018-07-26T22:07:29.051Z,23.10
2018-07-26T22:12:33.917Z,23.10
2018-07-26T22:17:38.469Z,22.90
2018-07-26T22:22:43.548Z,22.90
2018-07-26T22:27:48.738Z,22.80
2018-07-26T22:32:53.473Z,22.90
2018-07-26T22:37:57.954Z,22.90
2018-07-26T22:43:03.612Z,22.90
2018-07-26T22:48:08.583Z,22.80
2018-07-26T22:53:13.339Z,22.80
2018-07-26T22:58:17.948Z,22.70
2018-07-26T23:03:22.506Z,22.50
2018-07-26T23:08:27.228Z,22.20
2018-07-26T23:13:32.014Z,22.10
2018-07-26T23:18:36.521Z,21.90
2018-07-26T23:23:41.447Z,21.90
2018-07-26T23:28:46.231Z,21.70
2018-07-26T23:33:51.277Z,21.60
2018-07-26T23:38:56.271Z,21.30
2018-07-26T23:44:01.058Z,21.10
2018-07-26T23:49:05.776Z,21.00
2018-07-26T23:54:10.485Z,20.90
2018-07-26T23:59:15.027Z,20.90
